createdAt,value
2022-10-18T00:01:04.749Z,10.63
2022-10-18T00:03:32.009Z,11.40
2022-10-18T00:05:59.059Z,12.10
2022-10-18T00:08:26.350Z,11.83
2022-10-18T00:10:53.357Z,11.10
2022-10-18T00:13:20.932Z,12.07
2022-10-18T00:15:50.961Z,11.00
2022-10-18T00:18:17.897Z,11.33
2022-10-18T00:20:44.960Z,10.03
2022-10-18T00:23:11.849Z,11.07
2022-10-18T00:25:38.881Z,11.33
2022-10-18T00:28:05.797Z,10.03
2022-10-18T00:30:33.071Z,12.00
2022-10-18T00:32:59.964Z,11.37
2022-10-18T00:35:26.789Z,11.47
2022-10-18T00:37:53.618Z,11.00
2022-10-18T00:40:20.638Z,11.27
2022-10-18T00:42:47.498Z,11.47
2022-10-18T00:45:21.735Z,12.10
2022-10-18T00:47:56.649Z,12.17
2022-10-18T00:50:23.729Z,11.90
2022-10-18T00:52:53.616Z,12.13
2022-10-18T00:55:20.830Z,13.07
2022-10-18T00:57:47.849Z,15.43
2022-10-18T01:00:15.319Z,15.13
2022-10-18T01:02:44.831Z,15.07
2022-10-18T01:05:14.052Z,16.67
2022-10-18T01:07:58.577Z,16.33
2022-10-18T01:10:32.139Z,15.53
2022-10-18T01:13:26.207Z,14.23
2022-10-18T01:15:58.244Z,13.50
2022-10-18T01:18:31.042Z,13.40
2022-10-18T01:21:09.643Z,12.97
2022-10-18T01:23:52.046Z,12.90
2022-10-18T01:26:34.994Z,11.30
2022-10-18T01:29:12.876Z,11.23
2022-10-18T01:31:44.935Z,10.53
2022-10-18T01:34:13.685Z,11.43
2022-10-18T01:36:43.155Z,10.33
2022-10-18T01:39:14.948Z,10.63
2022-10-18T01:41:44.357Z,11.47
2022-10-18T01:44:17.319Z,11.63
2022-10-18T01:46:46.153Z,10.97
2022-10-18T01:49:13.153Z,11.87
2022-10-18T01:51:40.017Z,11.17
2022-10-18T01:54:06.819Z,11.43
2022-10-18T01:56:42.513Z,11.17
2022-10-18T01:59:29.280Z,11.20
2022-10-18T02:02:05.858Z,12.10
2022-10-18T02:04:40.563Z,12.00
2022-10-18T02:07:16.271Z,11.33
2022-10-18T02:09:50.039Z,12.07
2022-10-18T02:12:18.355Z,12.20
2022-10-18T02:14:46.595Z,12.80
2022-10-18T02:17:15.875Z,12.03
2022-10-18T02:19:45.846Z,11.73
2022-10-18T02:22:14.642Z,12.57
2022-10-18T02:24:44.619Z,12.77
2022-10-18T02:27:11.783Z,12.97
2022-10-18T02:29:40.282Z,13.00
2022-10-18T02:32:11.943Z,11.97
2022-10-18T02:34:42.824Z,11.93
2022-10-18T02:37:11.088Z,12.70
2022-10-18T02:39:42.850Z,12.27
2022-10-18T02:42:10.959Z,12.90
2022-10-18T02:44:38.777Z,12.10
2022-10-18T02:47:07.133Z,12.87
2022-10-18T02:49:34.028Z,11.63
2022-10-18T02:52:01.311Z,12.27
2022-10-18T02:54:28.217Z,12.37
2022-10-18T02:56:55.200Z,11.97
2022-10-18T02:59:22.035Z,12.53
2022-10-18T03:01:48.883Z,12.20
2022-10-18T03:04:15.800Z,12.30
2022-10-18T03:06:42.673Z,11.03
2022-10-18T03:09:10.277Z,12.10
2022-10-18T03:11:37.091Z,11.70
2022-10-18T03:14:03.976Z,12.07
2022-10-18T03:16:30.856Z,12.20
2022-10-18T03:18:57.677Z,12.30
2022-10-18T03:21:24.557Z,12.20
2022-10-18T03:23:51.387Z,11.57
2022-10-18T03:26:19.890Z,12.57
2022-10-18T03:28:46.919Z,12.13
2022-10-18T03:31:13.871Z,12.50
2022-10-18T03:33:40.702Z,12.23
2022-10-18T03:36:07.830Z,13.00
2022-10-18T03:38:34.839Z,12.73
2022-10-18T03:41:01.783Z,11.67
2022-10-18T03:43:29.287Z,12.93
2022-10-18T03:45:56.363Z,14.03
2022-10-18T03:48:23.296Z,13.23
2022-10-18T03:50:50.142Z,12.20
2022-10-18T03:53:16.996Z,13.20
2022-10-18T03:55:43.933Z,14.07
2022-10-18T03:58:10.800Z,12.93
2022-10-18T04:00:38.036Z,13.60
2022-10-18T04:03:04.963Z,14.50
2022-10-18T04:05:31.826Z,13.77
2022-10-18T04:07:58.781Z,15.43
2022-10-18T04:10:25.936Z,15.50
2022-10-18T04:12:52.906Z,14.43
2022-10-18T04:15:19.757Z,15.03
2022-10-18T04:17:49.304Z,15.30
2022-10-18T04:20:16.558Z,13.10
2022-10-18T04:22:43.367Z,13.93
2022-10-18T04:25:10.222Z,13.73
2022-10-18T04:27:37.443Z,13.67
2022-10-18T04:30:04.910Z,14.03
2022-10-18T04:32:31.798Z,14.03
2022-10-18T04:34:59.224Z,15.17
2022-10-18T04:37:26.110Z,14.57
2022-10-18T04:39:53.858Z,13.40
2022-10-18T04:42:20.823Z,13.50
2022-10-18T04:44:47.561Z,14.43
2022-10-18T04:47:14.397Z,14.50
2022-10-18T04:49:41.290Z,14.07
2022-10-18T04:52:09.216Z,14.13
2022-10-18T04:54:36.133Z,14.30
2022-10-18T04:57:02.980Z,15.57
2022-10-18T04:59:31.044Z,15.07
2022-10-18T05:01:57.966Z,13.83
2022-10-18T05:04:24.921Z,13.80
2022-10-18T05:06:51.807Z,13.40
2022-10-18T05:09:21.503Z,12.60
2022-10-18T05:11:48.583Z,13.60
2022-10-18T05:14:15.529Z,13.97
2022-10-18T05:16:42.364Z,12.87
2022-10-18T05:19:09.990Z,13.37
2022-10-18T05:21:36.865Z,12.27
2022-10-18T05:24:03.710Z,12.27
2022-10-18T05:26:30.964Z,12.57
2022-10-18T05:28:57.862Z,12.53
2022-10-18T05:31:24.779Z,12.77
2022-10-18T05:33:51.598Z,12.20
2022-10-18T05:36:18.160Z,12.27
2022-10-18T05:38:47.129Z,12.43
2022-10-18T05:41:14.354Z,12.47
2022-10-18T05:43:41.663Z,13.47
2022-10-18T05:46:13.463Z,13.40
2022-10-18T05:48:41.855Z,13.43
2022-10-18T05:51:08.702Z,14.43
2022-10-18T05:53:37.234Z,14.40
2022-10-18T05:56:04.923Z,13.63
2022-10-18T05:58:31.936Z,14.17
2022-10-18T06:00:59.921Z,14.80
2022-10-18T06:03:27.213Z,16.30
2022-10-18T06:05:54.283Z,15.27
2022-10-18T06:08:21.205Z,15.07
2022-10-18T06:10:48.082Z,15.23
2022-10-18T06:13:14.938Z,14.97
2022-10-18T06:15:41.814Z,14.30
2022-10-18T06:18:08.992Z,14.97
2022-10-18T06:20:35.874Z,14.37
2022-10-18T06:23:02.734Z,14.77
2022-10-18T06:25:29.669Z,15.10
2022-10-18T06:27:56.524Z,15.27
2022-10-18T06:30:23.355Z,15.13
2022-10-18T06:32:50.184Z,14.37
2022-10-18T06:35:17.441Z,15.63
2022-10-18T06:37:44.834Z,15.30
2022-10-18T06:40:11.931Z,14.80
2022-10-18T06:42:39.694Z,14.63
2022-10-18T06:45:07.553Z,15.47
2022-10-18T06:47:34.445Z,14.87
2022-10-18T06:50:01.350Z,15.63
2022-10-18T06:52:29.044Z,16.90
2022-10-18T06:54:56.300Z,16.30
2022-10-18T06:57:23.037Z,16.40
2022-10-18T06:59:50.511Z,15.43
2022-10-18T07:02:17.615Z,16.20
2022-10-18T07:04:44.515Z,16.10
2022-10-18T07:07:11.421Z,14.83
2022-10-18T07:09:38.647Z,15.87
2022-10-18T07:12:05.715Z,13.67
2022-10-18T07:14:32.591Z,16.20
2022-10-18T07:16:59.950Z,15.57
2022-10-18T07:19:26.543Z,15.10
2022-10-18T07:21:53.377Z,15.47
2022-10-18T07:24:20.278Z,14.57
2022-10-18T07:26:47.824Z,15.03
2022-10-18T07:29:14.901Z,15.03
2022-10-18T07:31:41.791Z,15.40
2022-10-18T07:34:12.404Z,15.60
2022-10-18T07:36:39.309Z,16.80
2022-10-18T07:39:06.495Z,15.40
2022-10-18T07:41:33.549Z,15.37
2022-10-18T07:44:01.466Z,14.10
2022-10-18T07:46:28.391Z,13.83
2022-10-18T07:48:55.589Z,13.50
2022-10-18T07:51:22.687Z,12.13
2022-10-18T07:53:49.506Z,10.97
2022-10-18T07:56:19.678Z,12.13
2022-10-18T07:58:47.965Z,12.70
2022-10-18T08:01:15.437Z,13.50
2022-10-18T08:03:42.559Z,12.57
2022-10-18T08:06:11.043Z,13.00
2022-10-18T08:08:39.200Z,14.33
2022-10-18T08:11:07.207Z,13.13
2022-10-18T08:13:34.463Z,13.03
2022-10-18T08:16:01.580Z,13.17
2022-10-18T08:18:29.422Z,12.30
2022-10-18T08:20:56.350Z,12.93
2022-10-18T08:23:23.290Z,12.33
2022-10-18T08:25:50.193Z,13.07
2022-10-18T08:28:17.094Z,13.10
2022-10-18T08:30:44.265Z,12.47
2022-10-18T08:33:11.166Z,18.80
2022-10-18T08:35:38.418Z,13.40
2022-10-18T08:38:05.267Z,12.60
2022-10-18T08:40:34.031Z,12.60
2022-10-18T08:43:06.804Z,11.67
2022-10-18T08:45:42.350Z,11.47
2022-10-18T08:48:17.371Z,11.10
2022-10-18T08:50:45.594Z,11.30
2022-10-18T08:53:19.245Z,11.27
2022-10-18T08:55:51.793Z,10.53
2022-10-18T08:58:20.765Z,9.80
2022-10-18T09:00:54.292Z,10.87
2022-10-18T09:03:33.267Z,10.40
2022-10-18T09:06:11.684Z,11.47
2022-10-18T09:08:49.266Z,10.93
2022-10-18T09:11:28.868Z,10.27
2022-10-18T09:14:29.420Z,10.07
2022-10-18T09:17:04.527Z,10.10
2022-10-18T09:19:54.245Z,9.53
2022-10-18T09:22:40.193Z,9.67
2022-10-18T09:25:14.844Z,9.43
2022-10-18T09:27:50.666Z,9.33
2022-10-18T09:30:26.484Z,9.50
2022-10-18T09:33:00.983Z,10.07
2022-10-18T09:35:30.999Z,36.37
2022-10-18T09:38:02.625Z,14.60
2022-10-18T09:40:32.236Z,10.80
2022-10-18T09:43:04.777Z,10.57
2022-10-18T09:45:34.827Z,10.20
2022-10-18T09:48:07.912Z,10.63
2022-10-18T09:50:39.103Z,10.50
2022-10-18T09:53:15.704Z,10.60
2022-10-18T09:55:56.233Z,10.30
2022-10-18T09:58:26.624Z,10.80
2022-10-18T10:00:53.852Z,12.03
2022-10-18T10:03:20.834Z,11.00
2022-10-18T10:06:01.290Z,10.23
2022-10-18T10:08:33.865Z,11.27
2022-10-18T10:11:00.902Z,10.97
2022-10-18T10:13:27.811Z,10.33
2022-10-18T10:15:56.511Z,9.90
2022-10-18T10:18:25.582Z,10.53
2022-10-18T10:20:54.501Z,10.67
2022-10-18T10:23:25.340Z,12.83
2022-10-18T10:25:55.259Z,10.70
2022-10-18T10:28:25.586Z,10.97
2022-10-18T10:30:52.544Z,11.20
2022-10-18T10:33:33.469Z,11.43
2022-10-18T10:36:01.534Z,11.17
2022-10-18T10:38:30.391Z,10.70
2022-10-18T10:40:59.052Z,11.57
2022-10-18T10:43:44.299Z,11.20
2022-10-18T10:46:14.069Z,10.07
2022-10-18T10:48:49.960Z,9.90
2022-10-18T10:52:02.460Z,11.47
2022-10-18T10:54:47.570Z,11.23
2022-10-18T10:57:22.215Z,11.10
2022-10-18T10:59:51.564Z,11.20
2022-10-18T11:02:22.799Z,11.00
2022-10-18T11:04:51.061Z,11.40
2022-10-18T11:07:24.454Z,11.53
2022-10-18T11:09:58.323Z,11.73
2022-10-18T11:12:33.125Z,11.60
2022-10-18T11:15:14.397Z,11.70
2022-10-18T11:17:47.252Z,11.70
2022-10-18T11:20:22.899Z,11.63
2022-10-18T11:23:01.166Z,11.53
2022-10-18T11:25:45.987Z,11.37
2022-10-18T11:28:23.916Z,11.93
2022-10-18T11:31:12.409Z,11.40
2022-10-18T11:34:09.114Z,11.30
2022-10-18T11:36:54.602Z,11.67
2022-10-18T11:39:40.832Z,11.87
2022-10-18T11:42:16.948Z,11.47
2022-10-18T11:44:50.808Z,12.30
2022-10-18T11:47:27.082Z,11.73
2022-10-18T11:50:07.362Z,11.43
2022-10-18T11:53:04.724Z,12.33
2022-10-18T11:56:05.599Z,12.20
2022-10-18T11:58:46.489Z,11.50
2022-10-18T12:05:05.954Z,11.33
2022-10-18T12:14:19.828Z,12.20
2022-10-18T12:16:51.410Z,13.40
2022-10-18T12:19:25.283Z,12.17
2022-10-18T12:21:56.119Z,12.30
2022-10-18T12:24:27.301Z,12.60
2022-10-18T12:26:59.466Z,11.83
2022-10-18T12:29:30.122Z,11.50
2022-10-18T12:32:02.374Z,11.30
2022-10-18T12:34:34.761Z,11.10
2022-10-18T12:37:23.743Z,10.90
2022-10-18T12:40:09.760Z,11.50
2022-10-18T12:42:42.601Z,10.77
2022-10-18T12:45:25.290Z,11.13
2022-10-18T12:47:53.729Z,9.70
2022-10-18T12:50:33.322Z,9.63
2022-10-18T12:53:26.416Z,9.70
2022-10-18T12:55:54.001Z,9.83
2022-10-18T12:58:31.794Z,10.63
2022-10-18T13:01:06.630Z,11.23
2022-10-18T13:04:01.009Z,11.57
2022-10-18T13:07:07.192Z,10.17
2022-10-18T13:09:35.852Z,9.80
2022-10-18T13:12:51.013Z,9.67
2022-10-18T13:19:23.648Z,9.50
2022-10-18T13:22:07.142Z,10.70
2022-10-18T13:24:39.887Z,9.63
2022-10-18T13:27:36.875Z,10.63
2022-10-18T13:30:41.197Z,9.67
2022-10-18T13:33:28.576Z,10.17
2022-10-18T13:35:57.512Z,10.37
2022-10-18T13:38:45.148Z,10.37
2022-10-18T13:41:13.465Z,10.30
2022-10-18T13:44:19.006Z,10.07
2022-10-18T13:47:38.594Z,9.00
2022-10-18T13:50:26.661Z,9.83
2022-10-18T13:53:29.091Z,10.20
2022-10-18T13:56:31.505Z,9.80
2022-10-18T13:59:17.568Z,9.33
2022-10-18T14:02:04.131Z,8.40
2022-10-18T14:05:10.599Z,8.27
2022-10-18T14:07:44.228Z,8.97
2022-10-18T14:10:26.767Z,8.57
2022-10-18T14:13:05.196Z,7.97
2022-10-18T14:15:37.102Z,8.03
2022-10-18T14:18:12.252Z,8.20
2022-10-18T14:20:55.380Z,8.33
2022-10-18T14:23:34.378Z,8.17
2022-10-18T14:26:07.098Z,7.87
2022-10-18T14:28:54.975Z,8.20
2022-10-18T14:31:21.053Z,8.50
2022-10-18T14:33:57.077Z,8.63
2022-10-18T14:36:27.054Z,9.67
2022-10-18T14:38:56.181Z,9.33
2022-10-18T14:41:25.334Z,9.70
2022-10-18T14:44:11.452Z,9.20
2022-10-18T14:46:42.902Z,9.50
2022-10-18T14:49:11.716Z,9.00
2022-10-18T14:51:40.343Z,9.67
2022-10-18T14:54:07.747Z,10.37
2022-10-18T14:56:42.587Z,10.57
2022-10-18T14:59:18.074Z,11.00
2022-10-18T15:01:53.425Z,11.33
2022-10-18T15:04:22.593Z,11.00
2022-10-18T15:06:52.821Z,10.90
2022-10-18T15:09:25.336Z,11.90
2022-10-18T15:11:54.665Z,12.27
2022-10-18T15:14:22.517Z,11.63
2022-10-18T15:16:52.232Z,12.03
2022-10-18T15:19:33.480Z,11.87
2022-10-18T15:25:11.061Z,12.60
2022-10-18T15:27:39.801Z,12.70
2022-10-18T15:30:07.891Z,13.73
2022-10-18T15:32:35.309Z,13.07
2022-10-18T15:35:09.322Z,12.13
2022-10-18T15:37:40.318Z,14.70
2022-10-18T15:40:19.220Z,13.50
2022-10-18T15:42:48.065Z,13.63
2022-10-18T15:45:38.529Z,14.07
2022-10-18T15:48:22.268Z,14.17
2022-10-18T15:50:51.172Z,14.37
2022-10-18T15:53:40.933Z,14.90
2022-10-18T15:56:26.911Z,16.43
2022-10-18T15:58:56.925Z,34.70
2022-10-18T16:01:31.809Z,17.53
2022-10-18T16:03:59.142Z,15.80
2022-10-18T16:06:26.133Z,16.27
2022-10-18T16:08:53.870Z,17.33
2022-10-18T16:11:22.526Z,15.53
2022-10-18T16:13:49.542Z,15.53
2022-10-18T16:16:19.171Z,25.60
2022-10-18T16:18:46.222Z,18.47
2022-10-18T16:21:18.461Z,19.20
2022-10-18T16:23:45.435Z,16.63
2022-10-18T16:26:12.507Z,16.93
2022-10-18T16:28:39.653Z,19.73
2022-10-18T16:31:07.180Z,19.57
2022-10-18T16:33:36.178Z,18.57
2022-10-18T16:36:04.303Z,18.10
2022-10-18T16:38:35.225Z,19.07
2022-10-18T16:41:03.254Z,18.77
2022-10-18T16:43:30.441Z,19.50
2022-10-18T16:45:57.755Z,20.20
2022-10-18T16:48:25.080Z,22.40
2022-10-18T16:50:53.945Z,19.43
2022-10-18T16:53:22.967Z,21.20
2022-10-18T16:55:55.699Z,20.23
2022-10-18T17:00:56.887Z,19.83
2022-10-18T17:03:24.317Z,19.70
2022-10-18T17:05:51.523Z,19.37
2022-10-18T17:08:20.679Z,19.70
2022-10-18T17:10:49.143Z,19.27
2022-10-18T17:13:16.505Z,19.23
2022-10-18T17:15:43.463Z,18.57
2022-10-18T17:18:13.800Z,19.23
2022-10-18T17:20:41.151Z,19.47
2022-10-18T17:23:08.471Z,19.47
2022-10-18T17:25:42.809Z,19.53
2022-10-18T17:28:18.838Z,19.43
2022-10-18T17:30:46.214Z,20.00
2022-10-18T17:33:16.201Z,19.27
2022-10-18T17:35:45.530Z,19.47
2022-10-18T17:38:12.426Z,18.77
2022-10-18T17:40:40.702Z,21.37
2022-10-18T17:43:07.552Z,21.50
2022-10-18T17:45:34.685Z,23.47
2022-10-18T17:48:01.650Z,23.00
2022-10-18T17:50:28.750Z,28.93
2022-10-18T17:52:56.569Z,63.93
2022-10-18T17:55:23.502Z,33.90
2022-10-18T17:57:51.569Z,29.77
2022-10-18T18:00:18.526Z,27.03
2022-10-18T18:02:46.316Z,73.03
2022-10-18T18:05:13.217Z,26.60
2022-10-18T18:07:41.109Z,24.10
2022-10-18T18:10:08.200Z,48.90
2022-10-18T18:12:35.350Z,49.87
2022-10-18T18:15:02.873Z,26.07
2022-10-18T18:17:34.382Z,22.83
2022-10-18T18:20:01.508Z,24.83
2022-10-18T18:22:28.377Z,24.73
2022-10-18T18:24:55.277Z,21.60
2022-10-18T18:27:22.207Z,25.90
2022-10-18T18:29:49.225Z,23.20
2022-10-18T18:32:16.770Z,22.63
2022-10-18T18:34:44.295Z,22.77
2022-10-18T18:37:11.056Z,21.50
2022-10-18T18:39:38.756Z,21.07
2022-10-18T18:42:06.255Z,22.37
2022-10-18T18:44:34.384Z,23.53
2022-10-18T18:47:01.565Z,24.70
2022-10-18T18:49:30.728Z,43.87
2022-10-18T18:51:57.584Z,27.97
2022-10-18T18:54:24.841Z,27.33
2022-10-18T18:56:51.966Z,23.27
2022-10-18T18:59:19.413Z,25.33
2022-10-18T19:01:46.038Z,21.47
2022-10-18T19:04:13.162Z,21.37
2022-10-18T19:06:42.416Z,18.40
2022-10-18T19:09:17.937Z,24.90
2022-10-18T19:11:45.988Z,17.63
2022-10-18T19:14:13.458Z,17.67
2022-10-18T19:16:41.340Z,15.13
2022-10-18T19:19:11.841Z,15.40
2022-10-18T19:21:41.540Z,14.83
2022-10-18T19:24:08.805Z,13.17
2022-10-18T19:26:40.721Z,11.90
2022-10-18T19:29:10.717Z,12.70
2022-10-18T19:31:37.994Z,13.23
2022-10-18T19:34:05.704Z,11.87
2022-10-18T19:36:32.660Z,12.30
2022-10-18T19:39:00.043Z,11.37
2022-10-18T19:41:27.972Z,19.43
2022-10-18T19:43:55.163Z,19.60
2022-10-18T19:46:22.228Z,13.10
2022-10-18T19:48:49.669Z,12.13
2022-10-18T19:51:20.270Z,11.23
2022-10-18T19:53:51.006Z,11.27
2022-10-18T19:56:20.454Z,10.47
2022-10-18T19:58:47.609Z,11.10
2022-10-18T20:01:15.326Z,10.63
2022-10-18T20:03:43.165Z,10.23
2022-10-18T20:06:10.152Z,9.93
2022-10-18T20:08:37.196Z,10.33
2022-10-18T20:11:05.821Z,10.83
2022-10-18T20:13:33.789Z,10.17
2022-10-18T20:16:00.990Z,10.27
2022-10-18T20:18:28.117Z,9.83
2022-10-18T20:20:55.294Z,9.07
2022-10-18T20:23:22.823Z,8.03
2022-10-18T20:25:58.981Z,8.07
2022-10-18T20:28:26.363Z,7.83
2022-10-18T20:31:02.162Z,8.40
2022-10-18T20:33:29.248Z,8.20
2022-10-18T20:35:56.245Z,8.57
2022-10-18T20:38:23.185Z,7.63
2022-10-18T20:40:50.083Z,7.13
2022-10-18T20:43:16.640Z,8.40
2022-10-18T20:45:43.507Z,7.60
2022-10-18T20:48:10.738Z,6.77
2022-10-18T20:50:43.172Z,7.77
2022-10-18T20:53:10.037Z,6.90
2022-10-18T20:55:38.316Z,7.80
2022-10-18T20:58:06.184Z,7.13
2022-10-18T21:00:34.854Z,6.77
2022-10-18T21:05:42.715Z,6.37
2022-10-18T21:08:09.952Z,8.30
2022-10-18T21:10:37.113Z,6.13
2022-10-18T21:13:04.389Z,6.13
2022-10-18T21:15:32.157Z,6.57
2022-10-18T21:17:59.083Z,5.80
2022-10-18T21:20:26.706Z,6.33
2022-10-18T21:22:53.557Z,6.37
2022-10-18T21:25:20.381Z,6.10
2022-10-18T21:27:47.208Z,6.73
2022-10-18T21:30:14.002Z,6.33
2022-10-18T21:32:41.315Z,15.53
2022-10-18T21:35:08.786Z,5.60
2022-10-18T21:37:36.969Z,6.03
2022-10-18T21:40:04.040Z,5.80
2022-10-18T21:42:30.973Z,5.47
2022-10-18T21:44:57.999Z,5.20
2022-10-18T21:47:24.891Z,5.10
2022-10-18T21:49:51.774Z,4.57
2022-10-18T21:52:18.658Z,4.70
2022-10-18T21:54:46.250Z,4.97
2022-10-18T21:57:13.109Z,4.97
2022-10-18T21:59:40.011Z,4.37
2022-10-18T22:02:06.879Z,4.33
2022-10-18T22:04:35.035Z,4.63
2022-10-18T22:07:03.331Z,4.77
2022-10-18T22:09:30.191Z,4.70
2022-10-18T22:11:58.039Z,4.23
2022-10-18T22:14:24.916Z,3.97
2022-10-18T22:16:51.796Z,4.40
2022-10-18T22:19:18.688Z,4.30
2022-10-18T22:21:45.703Z,4.33
2022-10-18T22:24:12.566Z,4.20
2022-10-18T22:26:41.043Z,3.93
2022-10-18T22:29:10.660Z,4.57
2022-10-18T22:31:40.252Z,3.80
2022-10-18T22:34:07.996Z,4.10
2022-10-18T22:36:35.938Z,3.63
2022-10-18T22:39:04.616Z,4.00
2022-10-18T22:41:31.725Z,3.63
2022-10-18T22:44:03.463Z,3.40
2022-10-18T22:46:31.810Z,3.10
2022-10-18T22:48:58.676Z,2.97
2022-10-18T22:51:25.614Z,2.73
2022-10-18T22:53:52.505Z,3.10
2022-10-18T22:56:20.767Z,2.53
2022-10-18T22:58:48.007Z,2.70
2022-10-18T23:01:16.875Z,2.83
2022-10-18T23:03:44.366Z,2.77
2022-10-18T23:06:23.843Z,4.07
2022-10-18T23:08:51.192Z,2.43
2022-10-18T23:11:18.437Z,2.70
2022-10-18T23:13:45.289Z,2.93
2022-10-18T23:16:12.222Z,2.93
2022-10-18T23:21:12.894Z,2.20
2022-10-18T23:23:41.854Z,2.07
2022-10-18T23:26:11.204Z,2.73
2022-10-18T23:28:39.826Z,2.83
2022-10-18T23:31:10.726Z,2.47
2022-10-18T23:33:38.006Z,2.90
2022-10-18T23:36:05.906Z,2.57
2022-10-18T23:38:38.515Z,2.63
2022-10-18T23:41:06.298Z,2.70
2022-10-18T23:43:33.418Z,2.37
2022-10-18T23:46:00.470Z,2.90
2022-10-18T23:48:27.665Z,2.80
2022-10-18T23:50:54.521Z,2.73
2022-10-18T23:53:21.724Z,3.13
2022-10-18T23:55:56.299Z,2.37
2022-10-18T23:58:23.465Z,2.40
